Pelican State — WDE4433 — position and weather

sailwx.info

Track history (hours):
 
Tides and Currents Weather Stations Pressure Air Temp Water Temp Dewpoint Dewpoint Depression Visibility Wind Speed Wind Dir Waves Ship Positions

Pelican State

Owner: Crowley Petroleum Serives, Jacksonville, FL. More information available from US FCC via Universal Licensing System and Coast Guard Vessel Documentation Center.

Last reported at 2018-Jan-20 00:40 UTC. Time now 2018-Jan-20 01:37 UTC.
Position N 48°13' W 123°38'.

Length 183 m; draft 9.1 m.

Type: Tanker. MMSI: 367353110.

Date/timePositionNaut miles runAvg speedWind from/ knotsBaromVisibWave heightAir tempDewpointWater temp
2018-Jan-20 00:40N 48°13' W 123°38'2 9.1
2018-Jan-20 00:27N 48°13' W 123°41'4 9.0
2018-Jan-20 00:00N 48°13' W 123°47'4 9.1
2018-Jan-19 23:30N 48°13' W 123°53'4 8.3
2018-Jan-19 23:00N 48°14' W 123°59'4 7.8
2018-Jan-19 22:30N 48°16' W 124°05'4 7.8
2018-Jan-19 22:00N 48°18' W 124°10'4 8.6
2018-Jan-19 21:30N 48°20' W 124°16'4 7.8
2018-Jan-19 21:00N 48°21' W 124°21'5 9.9
2018-Jan-19 20:29N 48°24' W 124°28'5 9.4
2018-Jan-19 20:00N 48°26' W 124°34'510.9
2018-Jan-19 19:30N 48°28' W 124°42'510.6
2018-Jan-19 19:00N 48°29' W 124°49'611.2
2018-Jan-19 18:30N 48°29' W 124°58'4 8.7
2018-Jan-19 18:00N 48°25' W 125°02'510.3
2018-Jan-19 17:29N 48°21' W 125°06'510.4
2018-Jan-19 16:58N 48°16' W 125°09'510.5
2018-Jan-19 16:29N 48°11' W 125°13'510.4
2018-Jan-19 16:00N 48°07' W 125°17'610.7
2018-Jan-19 15:28N 48°02' W 125°21'156 6.5
2018-Jan-18 15:27N 45°27' W 125°16'3 6.2
2018-Jan-18 15:00N 45°25' W 125°13'4 8.3
2018-Jan-18 14:30N 45°21' W 125°16'  
2018-Jan-12 15:00N 37°36' W 122°56'5 9.6
2018-Jan-12 14:30N 37°33' W 123°01'4 8.2
2018-Jan-12 14:00N 37°32' W 123°06'4 8.6
2018-Jan-12 13:30N 37°32' W 123°12'510.0
2018-Jan-12 12:59N 37°34' W 123°18'5 9.9
2018-Jan-12 12:26N 37°35' W 123°25'5 9.9
2018-Jan-12 11:58N 37°37' W 123°30'510.0
2018-Jan-12 11:30N 37°38' W 123°36'510.0
2018-Jan-12 11:00N 37°36' W 123°41'5 9.6
2018-Jan-12 10:28N 37°35' W 123°48'510.0
2018-Jan-12 09:59N 37°35' W 123°54'5 9.4
2018-Jan-12 09:30N 37°40' W 123°55'710.2
2018-Jan-12 08:46N 37°42' W 124°04'410.4
2018-Jan-12 08:24N 37°43' W 124°09'410.5
2018-Jan-12 08:00N 37°43' W 124°14'610.5
2018-Jan-12 07:29N 37°44' W 124°21'610.2
2018-Jan-12 06:56N 37°45' W 124°28'3 6.3
2018-Jan-12 06:28N 37°48' W 124°30'5 9.8
2018-Jan-12 05:59N 37°52' W 124°28'18 9.4
2018-Jan-12 04:03N 38°10' W 124°25'210.0
2018-Jan-12 03:50N 38°12' W 124°27'50312.1
2018-Jan-10 10:17N 46°31' W 125°45'10612.6
2018-Jan-10 01:55N 48°15' W 125°18'512.4
2018-Jan-10 01:29N 48°20' W 125°14'612.3
2018-Jan-10 00:59N 48°25' W 125°09'  
Track history (hours):
 
Tides and Currents Weather Stations Pressure Air Temp Water Temp Dewpoint Dewpoint Depression Visibility Wind Speed Wind Dir Waves Ship Positions

Pelican State

Owner: Crowley Petroleum Serives, Jacksonville, FL. More information available from US FCC via Universal Licensing System and Coast Guard Vessel Documentation Center.

Last reported at 2018-Jan-20 00:40 UTC. Time now 2018-Jan-20 01:37 UTC.
Position N 48°13' W 123°38'.

Length 183 m; draft 9.1 m.

Type: Tanker. MMSI: 367353110.

Date/timePositionNaut miles runAvg speedWind from/ knotsBaromVisibWave heightAir tempDewpointWater temp
2018-Jan-20 00:40N 48°13' W 123°38'2 9.1
2018-Jan-20 00:27N 48°13' W 123°41'4 9.0
2018-Jan-20 00:00N 48°13' W 123°47'4 9.1
2018-Jan-19 23:30N 48°13' W 123°53'4 8.3
2018-Jan-19 23:00N 48°14' W 123°59'4 7.8
2018-Jan-19 22:30N 48°16' W 124°05'4 7.8
2018-Jan-19 22:00N 48°18' W 124°10'4 8.6
2018-Jan-19 21:30N 48°20' W 124°16'4 7.8
2018-Jan-19 21:00N 48°21' W 124°21'5 9.9
2018-Jan-19 20:29N 48°24' W 124°28'5 9.4
2018-Jan-19 20:00N 48°26' W 124°34'510.9
2018-Jan-19 19:30N 48°28' W 124°42'510.6
2018-Jan-19 19:00N 48°29' W 124°49'611.2
2018-Jan-19 18:30N 48°29' W 124°58'4 8.7
2018-Jan-19 18:00N 48°25' W 125°02'510.3
2018-Jan-19 17:29N 48°21' W 125°06'510.4
2018-Jan-19 16:58N 48°16' W 125°09'510.5
2018-Jan-19 16:29N 48°11' W 125°13'510.4
2018-Jan-19 16:00N 48°07' W 125°17'610.7
2018-Jan-19 15:28N 48°02' W 125°21'156 6.5
2018-Jan-18 15:27N 45°27' W 125°16'3 6.2
2018-Jan-18 15:00N 45°25' W 125°13'4 8.3
2018-Jan-18 14:30N 45°21' W 125°16'  
2018-Jan-12 15:00N 37°36' W 122°56'5 9.6
2018-Jan-12 14:30N 37°33' W 123°01'4 8.2
2018-Jan-12 14:00N 37°32' W 123°06'4 8.6
2018-Jan-12 13:30N 37°32' W 123°12'510.0
2018-Jan-12 12:59N 37°34' W 123°18'5 9.9
2018-Jan-12 12:26N 37°35' W 123°25'5 9.9
2018-Jan-12 11:58N 37°37' W 123°30'510.0
2018-Jan-12 11:30N 37°38' W 123°36'510.0
2018-Jan-12 11:00N 37°36' W 123°41'5 9.6
2018-Jan-12 10:28N 37°35' W 123°48'510.0
2018-Jan-12 09:59N 37°35' W 123°54'5 9.4
2018-Jan-12 09:30N 37°40' W 123°55'710.2
2018-Jan-12 08:46N 37°42' W 124°04'410.4
2018-Jan-12 08:24N 37°43' W 124°09'410.5
2018-Jan-12 08:00N 37°43' W 124°14'610.5
2018-Jan-12 07:29N 37°44' W 124°21'610.2
2018-Jan-12 06:56N 37°45' W 124°28'3 6.3
2018-Jan-12 06:28N 37°48' W 124°30'5 9.8
2018-Jan-12 05:59N 37°52' W 124°28'18 9.4
2018-Jan-12 04:03N 38°10' W 124°25'210.0
2018-Jan-12 03:50N 38°12' W 124°27'50312.1
2018-Jan-10 10:17N 46°31' W 125°45'10612.6
2018-Jan-10 01:55N 48°15' W 125°18'512.4
2018-Jan-10 01:29N 48°20' W 125°14'612.3
2018-Jan-10 00:59N 48°25' W 125°09'  

Dump ship's entire track history